Main page
METAR-TAF:

METAR-TAF

Airports :

Deauville – Normandie Airport

Deauville, France

latitude: 49-21-55N, longitude: 000-09-16E, elevation: 146 m

Current weather observation

The report was made 42 minutes ago, at 13:00 UTC
Wind 4 kt from the East, varying between East/Northeast and South/Southeast
Temperature 16°C
Humidity 55%
Pressure 1027 hPa
Visibility 10 km or more
no clouds below 1500 m and no cumulonimbus

METAR: LFRG 021300Z AUTO 09004KT 060V150 CAVOK 16/07 Q1027 NOSIG

Time: 14:42 (13:42 UTC)

Forecast

The report was made 2 hours and 42 minutes ago, at 11:00 UTC
Forecast valid from 02 at 12 UTC to 02 at 21 UTC
Wind 8 kt from the Southeast
Visibility 10 km or more
no clouds below 1500 m and no cumulonimbus

TAF: LFRG 021100Z 0212/0221 13008KT CAVOK

Weather observations and forecasts of more than 4000 airports (METAR and TAF reports).

The available stations are represented by yellow and red dots on the map.

Hover mouse over dot to see the name of the station.

Then click to see weather observations and forecasts.

To change the map : click on the green buttons with a black cross to zoom in, on the green button with a dash to zoom out, or on the green arrows for adjacent maps.


METAR-TAF: